sensor_id;sensor_type;location;lat;lon;timestamp;temperature;humidity
42841;DHT22;28491;46.898;7.660;2022-11-20T00:02:22;2.90;90.90
42841;DHT22;28491;46.898;7.660;2022-11-20T00:04:48;3.00;90.80
42841;DHT22;28491;46.898;7.660;2022-11-20T00:07:13;3.10;90.40
42841;DHT22;28491;46.898;7.660;2022-11-20T00:09:39;3.10;90.00
42841;DHT22;28491;46.898;7.660;2022-11-20T00:12:04;3.10;90.20
42841;DHT22;28491;46.898;7.660;2022-11-20T00:14:30;3.20;90.20
42841;DHT22;28491;46.898;7.660;2022-11-20T00:16:55;3.30;90.40
42841;DHT22;28491;46.898;7.660;2022-11-20T00:19:21;3.30;89.90
42841;DHT22;28491;46.898;7.660;2022-11-20T00:21:46;3.30;88.70
42841;DHT22;28491;46.898;7.660;2022-11-20T00:24:12;3.40;89.80
42841;DHT22;28491;46.898;7.660;2022-11-20T00:26:38;3.40;86.90
42841;DHT22;28491;46.898;7.660;2022-11-20T00:29:03;3.40;86.60
42841;DHT22;28491;46.898;7.660;2022-11-20T00:31:30;3.40;87.30
42841;DHT22;28491;46.898;7.660;2022-11-20T00:33:56;3.50;86.60
42841;DHT22;28491;46.898;7.660;2022-11-20T00:36:24;3.50;85.80
42841;DHT22;28491;46.898;7.660;2022-11-20T00:38:54;3.50;85.60
42841;DHT22;28491;46.898;7.660;2022-11-20T00:41:20;3.50;85.60
42841;DHT22;28491;46.898;7.660;2022-11-20T00:43:46;3.60;86.80
42841;DHT22;28491;46.898;7.660;2022-11-20T00:46:17;3.60;86.60
42841;DHT22;28491;46.898;7.660;2022-11-20T00:48:44;3.70;84.60
42841;DHT22;28491;46.898;7.660;2022-11-20T00:51:12;3.60;84.10
42841;DHT22;28491;46.898;7.660;2022-11-20T00:53:38;3.60;85.00
42841;DHT22;28491;46.898;7.660;2022-11-20T00:56:06;3.60;86.00
42841;DHT22;28491;46.898;7.660;2022-11-20T00:58:34;3.70;86.60
42841;DHT22;28491;46.898;7.660;2022-11-20T01:01:11;3.70;87.50
42841;DHT22;28491;46.898;7.660;2022-11-20T01:03:39;3.70;84.90
42841;DHT22;28491;46.898;7.660;2022-11-20T01:06:17;3.70;84.30
42841;DHT22;28491;46.898;7.660;2022-11-20T01:08:44;3.60;86.90
42841;DHT22;28491;46.898;7.660;2022-11-20T01:11:13;3.70;88.20
42841;DHT22;28491;46.898;7.660;2022-11-20T01:13:40;3.80;86.20
42841;DHT22;28491;46.898;7.660;2022-11-20T01:16:14;3.80;84.50
42841;DHT22;28491;46.898;7.660;2022-11-20T01:18:42;3.80;85.00
42841;DHT22;28491;46.898;7.660;2022-11-20T01:21:14;3.80;86.20
42841;DHT22;28491;46.898;7.660;2022-11-20T01:23:42;3.70;86.00
42841;DHT22;28491;46.898;7.660;2022-11-20T01:26:13;3.70;87.60
42841;DHT22;28491;46.898;7.660;2022-11-20T01:28:40;3.80;88.20
42841;DHT22;28491;46.898;7.660;2022-11-20T01:31:24;3.80;88.40
42841;DHT22;28491;46.898;7.660;2022-11-20T01:33:51;3.80;87.80
42841;DHT22;28491;46.898;7.660;2022-11-20T01:36:19;3.80;89.70
42841;DHT22;28491;46.898;7.660;2022-11-20T01:38:44;3.80;90.60
42841;DHT22;28491;46.898;7.660;2022-11-20T01:41:11;3.80;91.00
42841;DHT22;28491;46.898;7.660;2022-11-20T01:43:57;3.80;90.90
42841;DHT22;28491;46.898;7.660;2022-11-20T01:46:23;3.80;90.80
42841;DHT22;28491;46.898;7.660;2022-11-20T01:49:02;3.80;90.70
42841;DHT22;28491;46.898;7.660;2022-11-20T01:51:29;3.80;90.60
42841;DHT22;28491;46.898;7.660;2022-11-20T01:53:59;3.80;90.20
42841;DHT22;28491;46.898;7.660;2022-11-20T01:56:26;3.80;90.50
42841;DHT22;28491;46.898;7.660;2022-11-20T01:58:57;3.80;90.40
42841;DHT22;28491;46.898;7.660;2022-11-20T02:01:23;3.90;90.70
42841;DHT22;28491;46.898;7.660;2022-11-20T02:03:49;3.90;90.80
42841;DHT22;28491;46.898;7.660;2022-11-20T02:09:30;4.00;90.90
42841;DHT22;28491;46.898;7.660;2022-11-20T02:11:56;4.00;89.10
42841;DHT22;28491;46.898;7.660;2022-11-20T02:14:22;4.00;87.60
42841;DHT22;28491;46.898;7.660;2022-11-20T02:16:49;4.00;88.30
42841;DHT22;28491;46.898;7.660;2022-11-20T02:19:27;3.90;88.50
42841;DHT22;28491;46.898;7.660;2022-11-20T02:24:19;3.80;90.50
42841;DHT22;28491;46.898;7.660;2022-11-20T02:26:51;3.80;91.30
42841;DHT22;28491;46.898;7.660;2022-11-20T02:29:23;3.80;91.70
42841;DHT22;28491;46.898;7.660;2022-11-20T02:31:50;3.70;91.90
42841;DHT22;28491;46.898;7.660;2022-11-20T02:34:16;3.70;92.50
42841;DHT22;28491;46.898;7.660;2022-11-20T02:36:42;3.70;93.50
42841;DHT22;28491;46.898;7.660;2022-11-20T02:39:09;3.70;93.40
42841;DHT22;28491;46.898;7.660;2022-11-20T02:41:37;3.70;93.60
42841;DHT22;28491;46.898;7.660;2022-11-20T02:44:04;3.70;94.40
42841;DHT22;28491;46.898;7.660;2022-11-20T02:46:30;3.70;94.50
42841;DHT22;28491;46.898;7.660;2022-11-20T02:48:56;3.70;95.10
42841;DHT22;28491;46.898;7.660;2022-11-20T02:51:22;3.70;95.30
42841;DHT22;28491;46.898;7.660;2022-11-20T02:53:47;3.80;95.30
42841;DHT22;28491;46.898;7.660;2022-11-20T02:56:13;3.80;95.30
42841;DHT22;28491;46.898;7.660;2022-11-20T02:58:38;3.80;95.10
42841;DHT22;28491;46.898;7.660;2022-11-20T03:01:04;3.90;95.10
42841;DHT22;28491;46.898;7.660;2022-11-20T03:03:29;3.90;95.00
42841;DHT22;28491;46.898;7.660;2022-11-20T03:05:55;3.90;94.50
42841;DHT22;28491;46.898;7.660;2022-11-20T03:08:20;3.90;94.00
42841;DHT22;28491;46.898;7.660;2022-11-20T03:10:46;3.90;93.70
42841;DHT22;28491;46.898;7.660;2022-11-20T03:13:11;3.90;94.10
42841;DHT22;28491;46.898;7.660;2022-11-20T03:15:37;3.90;94.70
42841;DHT22;28491;46.898;7.660;2022-11-20T03:18:03;4.00;94.90
42841;DHT22;28491;46.898;7.660;2022-11-20T03:20:29;3.90;94.60
42841;DHT22;28491;46.898;7.660;2022-11-20T03:22:54;4.00;94.60
42841;DHT22;28491;46.898;7.660;2022-11-20T03:25:21;4.00;93.90
42841;DHT22;28491;46.898;7.660;2022-11-20T03:27:46;4.00;93.60
42841;DHT22;28491;46.898;7.660;2022-11-20T03:30:12;4.00;93.70
42841;DHT22;28491;46.898;7.660;2022-11-20T03:32:37;4.00;93.60
42841;DHT22;28491;46.898;7.660;2022-11-20T03:35:03;4.00;93.70
42841;DHT22;28491;46.898;7.660;2022-11-20T03:37:29;4.00;94.40
42841;DHT22;28491;46.898;7.660;2022-11-20T03:39:54;4.00;94.50
42841;DHT22;28491;46.898;7.660;2022-11-20T03:42:20;4.00;94.30
42841;DHT22;28491;46.898;7.660;2022-11-20T03:45:04;4.00;94.30
42841;DHT22;28491;46.898;7.660;2022-11-20T03:47:30;4.00;94.50
42841;DHT22;28491;46.898;7.660;2022-11-20T03:49:56;4.00;94.80
42841;DHT22;28491;46.898;7.660;2022-11-20T03:52:21;3.90;95.20
42841;DHT22;28491;46.898;7.660;2022-11-20T03:54:47;3.90;95.70
42841;DHT22;28491;46.898;7.660;2022-11-20T03:57:12;3.90;95.80
42841;DHT22;28491;46.898;7.660;2022-11-20T03:59:38;3.90;95.90
42841;DHT22;28491;46.898;7.660;2022-11-20T04:02:03;3.90;96.20
42841;DHT22;28491;46.898;7.660;2022-11-20T04:04:29;3.90;96.30
42841;DHT22;28491;46.898;7.660;2022-11-20T04:06:54;4.00;96.10
42841;DHT22;28491;46.898;7.660;2022-11-20T04:09:20;4.00;96.00
42841;DHT22;28491;46.898;7.660;2022-11-20T04:11:45;4.00;96.10
42841;DHT22;28491;46.898;7.660;2022-11-20T04:14:15;4.00;96.20
42841;DHT22;28491;46.898;7.660;2022-11-20T04:16:41;4.10;96.00
42841;DHT22;28491;46.898;7.660;2022-11-20T04:19:15;4.00;96.20
42841;DHT22;28491;46.898;7.660;2022-11-20T04:21:41;4.00;96.30
42841;DHT22;28491;46.898;7.660;2022-11-20T04:24:08;4.00;96.50
42841;DHT22;28491;46.898;7.660;2022-11-20T04:26:34;4.00;96.80
42841;DHT22;28491;46.898;7.660;2022-11-20T04:28:59;4.00;97.10
42841;DHT22;28491;46.898;7.660;2022-11-20T04:31:29;4.00;97.10
42841;DHT22;28491;46.898;7.660;2022-11-20T04:33:58;4.00;97.00
42841;DHT22;28491;46.898;7.660;2022-11-20T04:36:25;3.90;97.00
42841;DHT22;28491;46.898;7.660;2022-11-20T04:38:56;4.00;97.00
42841;DHT22;28491;46.898;7.660;2022-11-20T04:41:26;4.00;97.10
42841;DHT22;28491;46.898;7.660;2022-11-20T04:43:54;4.00;97.20
42841;DHT22;28491;46.898;7.660;2022-11-20T04:46:25;3.90;96.80
42841;DHT22;28491;46.898;7.660;2022-11-20T04:48:51;3.90;96.40
42841;DHT22;28491;46.898;7.660;2022-11-20T04:51:16;3.90;96.40
42841;DHT22;28491;46.898;7.660;2022-11-20T04:53:42;3.90;96.40
42841;DHT22;28491;46.898;7.660;2022-11-20T04:56:10;3.90;96.50
42841;DHT22;28491;46.898;7.660;2022-11-20T04:58:36;3.90;95.90
42841;DHT22;28491;46.898;7.660;2022-11-20T05:01:07;3.80;95.40
42841;DHT22;28491;46.898;7.660;2022-11-20T05:03:33;3.80;95.90
42841;DHT22;28491;46.898;7.660;2022-11-20T05:06:03;3.80;95.80
42841;DHT22;28491;46.898;7.660;2022-11-20T05:08:29;3.90;95.70
42841;DHT22;28491;46.898;7.660;2022-11-20T05:11:10;3.80;95.80
42841;DHT22;28491;46.898;7.660;2022-11-20T05:13:36;3.70;96.30
42841;DHT22;28491;46.898;7.660;2022-11-20T05:16:12;3.70;96.50
42841;DHT22;28491;46.898;7.660;2022-11-20T05:18:39;3.60;96.80
42841;DHT22;28491;46.898;7.660;2022-11-20T05:21:06;3.60;97.10
42841;DHT22;28491;46.898;7.660;2022-11-20T05:23:32;3.70;97.40
42841;DHT22;28491;46.898;7.660;2022-11-20T05:25:59;3.70;97.20
42841;DHT22;28491;46.898;7.660;2022-11-20T05:28:25;3.70;97.20
42841;DHT22;28491;46.898;7.660;2022-11-20T05:30:51;3.70;97.00
42841;DHT22;28491;46.898;7.660;2022-11-20T05:33:17;3.70;97.00
42841;DHT22;28491;46.898;7.660;2022-11-20T05:35:43;3.70;97.00
42841;DHT22;28491;46.898;7.660;2022-11-20T05:38:08;3.70;96.90
42841;DHT22;28491;46.898;7.660;2022-11-20T05:40:34;3.70;96.90
42841;DHT22;28491;46.898;7.660;2022-11-20T05:43:00;3.70;96.90
42841;DHT22;28491;46.898;7.660;2022-11-20T05:45:26;3.70;97.20
42841;DHT22;28491;46.898;7.660;2022-11-20T05:47:52;3.80;97.60
42841;DHT22;28491;46.898;7.660;2022-11-20T05:50:17;3.80;97.60
42841;DHT22;28491;46.898;7.660;2022-11-20T05:52:43;3.80;97.50
42841;DHT22;28491;46.898;7.660;2022-11-20T05:55:09;3.80;97.20
42841;DHT22;28491;46.898;7.660;2022-11-20T05:57:35;3.70;97.10
42841;DHT22;28491;46.898;7.660;2022-11-20T06:00:01;3.70;97.20
42841;DHT22;28491;46.898;7.660;2022-11-20T06:02:26;3.80;97.50
42841;DHT22;28491;46.898;7.660;2022-11-20T06:04:52;3.80;97.60
42841;DHT22;28491;46.898;7.660;2022-11-20T06:07:17;3.80;97.90
42841;DHT22;28491;46.898;7.660;2022-11-20T06:09:43;3.80;98.00
42841;DHT22;28491;46.898;7.660;2022-11-20T06:12:08;3.90;97.80
42841;DHT22;28491;46.898;7.660;2022-11-20T06:14:34;3.90;97.60
42841;DHT22;28491;46.898;7.660;2022-11-20T06:16:59;3.90;97.20
42841;DHT22;28491;46.898;7.660;2022-11-20T06:19:25;3.90;97.00
42841;DHT22;28491;46.898;7.660;2022-11-20T06:21:51;3.90;97.10
42841;DHT22;28491;46.898;7.660;2022-11-20T06:24:17;3.90;97.30
42841;DHT22;28491;46.898;7.660;2022-11-20T06:26:43;3.80;97.60
42841;DHT22;28491;46.898;7.660;2022-11-20T06:29:08;3.80;97.80
42841;DHT22;28491;46.898;7.660;2022-11-20T06:31:34;3.70;97.90
42841;DHT22;28491;46.898;7.660;2022-11-20T06:34:03;3.80;98.00
42841;DHT22;28491;46.898;7.660;2022-11-20T06:36:29;3.80;98.20
42841;DHT22;28491;46.898;7.660;2022-11-20T06:38:54;3.80;98.30
42841;DHT22;28491;46.898;7.660;2022-11-20T06:41:21;3.80;98.40
42841;DHT22;28491;46.898;7.660;2022-11-20T06:43:47;3.70;98.30
42841;DHT22;28491;46.898;7.660;2022-11-20T06:46:13;3.70;98.20
42841;DHT22;28491;46.898;7.660;2022-11-20T06:48:40;3.70;98.30
42841;DHT22;28491;46.898;7.660;2022-11-20T06:51:07;3.70;98.50
42841;DHT22;28491;46.898;7.660;2022-11-20T06:53:33;3.70;98.40
42841;DHT22;28491;46.898;7.660;2022-11-20T06:55:59;3.80;98.50
42841;DHT22;28491;46.898;7.660;2022-11-20T06:58:29;3.80;98.50
42841;DHT22;28491;46.898;7.660;2022-11-20T07:00:59;3.80;98.40
42841;DHT22;28491;46.898;7.660;2022-11-20T07:03:24;3.90;98.30
42841;DHT22;28491;46.898;7.660;2022-11-20T07:05:50;3.90;98.40
42841;DHT22;28491;46.898;7.660;2022-11-20T07:08:15;3.90;98.40
42841;DHT22;28491;46.898;7.660;2022-11-20T07:10:41;3.90;98.30
42841;DHT22;28491;46.898;7.660;2022-11-20T07:13:07;4.00;98.10
42841;DHT22;28491;46.898;7.660;2022-11-20T07:15:32;3.90;97.90
42841;DHT22;28491;46.898;7.660;2022-11-20T07:17:59;3.90;97.90
42841;DHT22;28491;46.898;7.660;2022-11-20T07:20:25;3.90;98.00
42841;DHT22;28491;46.898;7.660;2022-11-20T07:22:54;3.90;97.90
42841;DHT22;28491;46.898;7.660;2022-11-20T07:25:21;4.00;98.00
42841;DHT22;28491;46.898;7.660;2022-11-20T07:27:46;3.90;97.90
42841;DHT22;28491;46.898;7.660;2022-11-20T07:30:12;3.90;97.90
42841;DHT22;28491;46.898;7.660;2022-11-20T07:32:39;3.90;97.90
42841;DHT22;28491;46.898;7.660;2022-11-20T07:35:05;3.90;98.00
42841;DHT22;28491;46.898;7.660;2022-11-20T07:37:30;4.00;98.10
42841;DHT22;28491;46.898;7.660;2022-11-20T07:39:58;4.00;98.20
42841;DHT22;28491;46.898;7.660;2022-11-20T07:42:24;4.00;97.80
42841;DHT22;28491;46.898;7.660;2022-11-20T07:44:49;4.20;98.10
42841;DHT22;28491;46.898;7.660;2022-11-20T07:47:15;4.30;98.40
42841;DHT22;28491;46.898;7.660;2022-11-20T07:49:40;4.30;98.00
42841;DHT22;28491;46.898;7.660;2022-11-20T07:52:06;4.40;98.00
42841;DHT22;28491;46.898;7.660;2022-11-20T07:54:31;4.40;97.40
42841;DHT22;28491;46.898;7.660;2022-11-20T07:56:57;4.50;97.00
42841;DHT22;28491;46.898;7.660;2022-11-20T07:59:22;4.50;96.30
42841;DHT22;28491;46.898;7.660;2022-11-20T08:01:48;4.50;95.90
42841;DHT22;28491;46.898;7.660;2022-11-20T08:04:14;4.70;95.80
42841;DHT22;28491;46.898;7.660;2022-11-20T08:06:41;4.70;94.60
42841;DHT22;28491;46.898;7.660;2022-11-20T08:09:07;4.80;95.20
42841;DHT22;28491;46.898;7.660;2022-11-20T08:11:32;4.90;95.00
42841;DHT22;28491;46.898;7.660;2022-11-20T08:14:16;5.10;93.60
42841;DHT22;28491;46.898;7.660;2022-11-20T08:16:45;5.10;90.30
42841;DHT22;28491;46.898;7.660;2022-11-20T08:19:11;5.10;86.60
42841;DHT22;28491;46.898;7.660;2022-11-20T08:21:37;5.10;83.90
42841;DHT22;28491;46.898;7.660;2022-11-20T08:24:03;5.20;83.20
42841;DHT22;28491;46.898;7.660;2022-11-20T08:26:29;5.10;81.90
42841;DHT22;28491;46.898;7.660;2022-11-20T08:28:58;5.20;82.40
42841;DHT22;28491;46.898;7.660;2022-11-20T08:31:25;5.30;82.10
42841;DHT22;28491;46.898;7.660;2022-11-20T08:33:51;5.40;81.90
42841;DHT22;28491;46.898;7.660;2022-11-20T08:36:17;5.30;77.10
42841;DHT22;28491;46.898;7.660;2022-11-20T08:38:48;5.20;75.80
42841;DHT22;28491;46.898;7.660;2022-11-20T08:41:13;5.20;73.50
42841;DHT22;28491;46.898;7.660;2022-11-20T08:43:58;5.30;71.40
42841;DHT22;28491;46.898;7.660;2022-11-20T08:46:35;5.40;71.90
42841;DHT22;28491;46.898;7.660;2022-11-20T08:49:05;5.50;70.20
42841;DHT22;28491;46.898;7.660;2022-11-20T08:51:31;5.70;67.60
42841;DHT22;28491;46.898;7.660;2022-11-20T08:53:57;5.80;66.90
42841;DHT22;28491;46.898;7.660;2022-11-20T08:56:23;5.90;67.00
42841;DHT22;28491;46.898;7.660;2022-11-20T08:58:50;5.90;65.00
42841;DHT22;28491;46.898;7.660;2022-11-20T09:01:16;5.90;66.60
42841;DHT22;28491;46.898;7.660;2022-11-20T09:03:42;5.80;66.00
42841;DHT22;28491;46.898;7.660;2022-11-20T09:06:08;5.80;65.30
42841;DHT22;28491;46.898;7.660;2022-11-20T09:08:34;5.80;65.60
42841;DHT22;28491;46.898;7.660;2022-11-20T09:11:00;5.80;65.00
42841;DHT22;28491;46.898;7.660;2022-11-20T09:13:27;5.80;64.30
42841;DHT22;28491;46.898;7.660;2022-11-20T09:15:58;5.80;63.60
42841;DHT22;28491;46.898;7.660;2022-11-20T09:18:25;5.80;63.00
42841;DHT22;28491;46.898;7.660;2022-11-20T09:20:50;5.80;61.20
42841;DHT22;28491;46.898;7.660;2022-11-20T09:23:16;5.70;61.20
42841;DHT22;28491;46.898;7.660;2022-11-20T09:25:45;5.80;60.60
42841;DHT22;28491;46.898;7.660;2022-11-20T09:28:11;6.00;61.40
42841;DHT22;28491;46.898;7.660;2022-11-20T09:30:36;6.30;59.40
42841;DHT22;28491;46.898;7.660;2022-11-20T09:33:04;6.70;51.90
42841;DHT22;28491;46.898;7.660;2022-11-20T09:35:29;7.70;35.60
42841;DHT22;28491;46.898;7.660;2022-11-20T09:37:55;8.00;20.80
42841;DHT22;28491;46.898;7.660;2022-11-20T09:40:25;7.90;27.20
42841;DHT22;28491;46.898;7.660;2022-11-20T09:43:18;7.90;30.70
42841;DHT22;28491;46.898;7.660;2022-11-20T09:46:08;7.30;27.30
42841;DHT22;28491;46.898;7.660;2022-11-20T09:48:51;7.50;34.40
42841;DHT22;28491;46.898;7.660;2022-11-20T09:51:47;8.10;38.40
42841;DHT22;28491;46.898;7.660;2022-11-20T09:54:19;8.60;31.30
42841;DHT22;28491;46.898;7.660;2022-11-20T09:56:58;8.60;38.20
42841;DHT22;28491;46.898;7.660;2022-11-20T09:59:38;8.40;28.50
42841;DHT22;28491;46.898;7.660;2022-11-20T10:05:10;7.90;33.20
42841;DHT22;28491;46.898;7.660;2022-11-20T10:07:48;7.80;38.30
42841;DHT22;28491;46.898;7.660;2022-11-20T10:10:42;7.60;40.30
42841;DHT22;28491;46.898;7.660;2022-11-20T10:13:43;7.50;40.80
42841;DHT22;28491;46.898;7.660;2022-11-20T10:22:02;7.40;38.40
42841;DHT22;28491;46.898;7.660;2022-11-20T10:27:33;8.30;36.80
42841;DHT22;28491;46.898;7.660;2022-11-20T10:30:13;8.90;38.90
42841;DHT22;28491;46.898;7.660;2022-11-20T10:33:23;9.10;16.80
42841;DHT22;28491;46.898;7.660;2022-11-20T10:35:45;9.00;17.50
42841;DHT22;28491;46.898;7.660;2022-11-20T10:38:23;9.20;27.70
42841;DHT22;28491;46.898;7.660;2022-11-20T10:40:56;9.70;18.30
42841;DHT22;28491;46.898;7.660;2022-11-20T10:43:46;9.70;17.90
42841;DHT22;28491;46.898;7.660;2022-11-20T10:46:17;9.90;11.60
42841;DHT22;28491;46.898;7.660;2022-11-20T10:48:44;10.20;9.80
42841;DHT22;28491;46.898;7.660;2022-11-20T10:53:56;10.40;6.20
42841;DHT22;28491;46.898;7.660;2022-11-20T10:59:10;10.50;4.10
42841;DHT22;28491;46.898;7.660;2022-11-20T11:01:42;10.10;8.20
42841;DHT22;28491;46.898;7.660;2022-11-20T11:06:48;9.20;13.40
42841;DHT22;28491;46.898;7.660;2022-11-20T11:09:19;9.20;15.50
42841;DHT22;28491;46.898;7.660;2022-11-20T11:11:46;9.60;17.10
42841;DHT22;28491;46.898;7.660;2022-11-20T11:14:14;9.40;16.40
42841;DHT22;28491;46.898;7.660;2022-11-20T11:16:54;9.50;17.30
42841;DHT22;28491;46.898;7.660;2022-11-20T11:19:20;9.40;15.60
42841;DHT22;28491;46.898;7.660;2022-11-20T11:21:47;9.50;17.70
42841;DHT22;28491;46.898;7.660;2022-11-20T11:24:24;9.50;12.30
42841;DHT22;28491;46.898;7.660;2022-11-20T11:26:59;9.60;16.70
42841;DHT22;28491;46.898;7.660;2022-11-20T11:29:30;9.60;18.50
42841;DHT22;28491;46.898;7.660;2022-11-20T11:32:16;10.00;15.90
42841;DHT22;28491;46.898;7.660;2022-11-20T11:34:42;10.40;11.00
42841;DHT22;28491;46.898;7.660;2022-11-20T11:37:36;10.50;11.40
42841;DHT22;28491;46.898;7.660;2022-11-20T11:40:03;10.60;8.30
42841;DHT22;28491;46.898;7.660;2022-11-20T11:42:30;10.50;13.30
42841;DHT22;28491;46.898;7.660;2022-11-20T11:44:58;10.40;10.10
42841;DHT22;28491;46.898;7.660;2022-11-20T11:47:32;10.70;1.90
42841;DHT22;28491;46.898;7.660;2022-11-20T11:50:15;11.00;1.00
42841;DHT22;28491;46.898;7.660;2022-11-20T11:53:17;11.30;1.00
42841;DHT22;28491;46.898;7.660;2022-11-20T11:55:58;11.50;1.00
42841;DHT22;28491;46.898;7.660;2022-11-20T12:06:56;10.10;1.00
42841;DHT22;28491;46.898;7.660;2022-11-20T12:09:24;10.10;2.50
42841;DHT22;28491;46.898;7.660;2022-11-20T12:12:08;10.20;1.00
42841;DHT22;28491;46.898;7.660;2022-11-20T12:14:37;10.40;1.00
42841;DHT22;28491;46.898;7.660;2022-11-20T12:17:05;10.30;3.90
42841;DHT22;28491;46.898;7.660;2022-11-20T12:19:33;10.50;1.60
42841;DHT22;28491;46.898;7.660;2022-11-20T12:22:18;10.50;1.00
42841;DHT22;28491;46.898;7.660;2022-11-20T12:30:20;10.20;1.00
42841;DHT22;28491;46.898;7.660;2022-11-20T12:33:03;10.10;1.00
42841;DHT22;28491;46.898;7.660;2022-11-20T12:36:06;10.20;1.00
42841;DHT22;28491;46.898;7.660;2022-11-20T12:39:02;10.30;1.00
42841;DHT22;28491;46.898;7.660;2022-11-20T12:41:57;10.30;1.00
42841;DHT22;28491;46.898;7.660;2022-11-20T12:53:32;10.20;1.00
42841;DHT22;28491;46.898;7.660;2022-11-20T12:56:02;9.90;1.00
42841;DHT22;28491;46.898;7.660;2022-11-20T13:07:04;10.10;1.00
42841;DHT22;28491;46.898;7.660;2022-11-20T13:09:32;10.10;1.00
42841;DHT22;28491;46.898;7.660;2022-11-20T13:14:46;10.10;1.00
42841;DHT22;28491;46.898;7.660;2022-11-20T13:17:24;10.10;1.00
42841;DHT22;28491;46.898;7.660;2022-11-20T13:19:55;10.00;1.00
42841;DHT22;28491;46.898;7.660;2022-11-20T13:22:25;10.00;1.00
42841;DHT22;28491;46.898;7.660;2022-11-20T13:24:51;10.00;1.00
42841;DHT22;28491;46.898;7.660;2022-11-20T13:27:20;10.10;1.00
42841;DHT22;28491;46.898;7.660;2022-11-20T13:30:17;10.00;1.00
42841;DHT22;28491;46.898;7.660;2022-11-20T13:33:04;9.90;1.00
42841;DHT22;28491;46.898;7.660;2022-11-20T13:35:37;9.70;1.00
42841;DHT22;28491;46.898;7.660;2022-11-20T13:38:14;9.80;1.00
42841;DHT22;28491;46.898;7.660;2022-11-20T13:40:58;9.80;1.00
42841;DHT22;28491;46.898;7.660;2022-11-20T13:43:39;9.70;1.00
42841;DHT22;28491;46.898;7.660;2022-11-20T13:46:08;9.50;1.00
42841;DHT22;28491;46.898;7.660;2022-11-20T13:48:39;9.60;1.00
42841;DHT22;28491;46.898;7.660;2022-11-20T13:51:29;9.60;1.00
42841;DHT22;28491;46.898;7.660;2022-11-20T14:02:26;9.50;1.00
42841;DHT22;28491;46.898;7.660;2022-11-20T14:04:54;9.50;1.00
42841;DHT22;28491;46.898;7.660;2022-11-20T14:07:23;9.60;1.00
42841;DHT22;28491;46.898;7.660;2022-11-20T14:09:51;9.70;1.00
42841;DHT22;28491;46.898;7.660;2022-11-20T14:12:20;9.70;1.00
42841;DHT22;28491;46.898;7.660;2022-11-20T14:14:53;9.70;1.70
42841;DHT22;28491;46.898;7.660;2022-11-20T14:17:40;9.40;1.00
42841;DHT22;28491;46.898;7.660;2022-11-20T14:20:11;9.00;2.50
42841;DHT22;28491;46.898;7.660;2022-11-20T14:22:37;8.80;8.20
42841;DHT22;28491;46.898;7.660;2022-11-20T14:25:05;8.60;7.60
42841;DHT22;28491;46.898;7.660;2022-11-20T14:27:34;8.20;10.60
42841;DHT22;28491;46.898;7.660;2022-11-20T14:30:02;7.90;15.60
42841;DHT22;28491;46.898;7.660;2022-11-20T14:32:29;7.80;15.00
42841;DHT22;28491;46.898;7.660;2022-11-20T14:35:01;7.50;17.40
42841;DHT22;28491;46.898;7.660;2022-11-20T14:37:30;7.30;19.40
42841;DHT22;28491;46.898;7.660;2022-11-20T14:39:58;7.10;22.90
42841;DHT22;28491;46.898;7.660;2022-11-20T14:42:28;7.00;25.10
42841;DHT22;28491;46.898;7.660;2022-11-20T14:45:00;7.10;25.70
42841;DHT22;28491;46.898;7.660;2022-11-20T14:47:29;7.00;25.10
42841;DHT22;28491;46.898;7.660;2022-11-20T14:49:57;6.90;28.00
42841;DHT22;28491;46.898;7.660;2022-11-20T14:52:25;6.70;31.10
42841;DHT22;28491;46.898;7.660;2022-11-20T14:54:56;6.70;33.70
42841;DHT22;28491;46.898;7.660;2022-11-20T14:57:28;6.70;36.40
42841;DHT22;28491;46.898;7.660;2022-11-20T15:00:30;6.80;34.00
42841;DHT22;28491;46.898;7.660;2022-11-20T15:02:56;6.70;37.10
42841;DHT22;28491;46.898;7.660;2022-11-20T15:05:25;6.50;32.90
42841;DHT22;28491;46.898;7.660;2022-11-20T15:08:05;6.40;36.90
42841;DHT22;28491;46.898;7.660;2022-11-20T15:10:31;6.40;34.50
42841;DHT22;28491;46.898;7.660;2022-11-20T15:13:05;6.40;35.70
42841;DHT22;28491;46.898;7.660;2022-11-20T15:15:47;6.50;38.30
42841;DHT22;28491;46.898;7.660;2022-11-20T15:18:36;6.30;40.40
42841;DHT22;28491;46.898;7.660;2022-11-20T15:21:03;6.20;41.60
42841;DHT22;28491;46.898;7.660;2022-11-20T15:23:29;6.20;46.80
42841;DHT22;28491;46.898;7.660;2022-11-20T15:25:55;6.20;40.00
42841;DHT22;28491;46.898;7.660;2022-11-20T15:28:30;6.20;39.40
42841;DHT22;28491;46.898;7.660;2022-11-20T15:30:57;6.10;41.90
42841;DHT22;28491;46.898;7.660;2022-11-20T15:33:22;6.00;43.10
42841;DHT22;28491;46.898;7.660;2022-11-20T15:35:48;5.90;47.40
42841;DHT22;28491;46.898;7.660;2022-11-20T15:38:14;5.80;50.10
42841;DHT22;28491;46.898;7.660;2022-11-20T15:40:39;5.80;54.10
42841;DHT22;28491;46.898;7.660;2022-11-20T15:43:05;5.60;55.90
42841;DHT22;28491;46.898;7.660;2022-11-20T15:48:01;5.90;54.70
42841;DHT22;28491;46.898;7.660;2022-11-20T15:50:33;5.80;53.50
42841;DHT22;28491;46.898;7.660;2022-11-20T15:53:01;5.70;55.80
42841;DHT22;28491;46.898;7.660;2022-11-20T15:55:27;5.80;56.80
42841;DHT22;28491;46.898;7.660;2022-11-20T15:57:52;5.70;54.80
42841;DHT22;28491;46.898;7.660;2022-11-20T16:00:18;5.70;55.20
42841;DHT22;28491;46.898;7.660;2022-11-20T16:02:43;5.60;59.40
42841;DHT22;28491;46.898;7.660;2022-11-20T16:05:11;5.50;60.30
42841;DHT22;28491;46.898;7.660;2022-11-20T16:07:37;5.40;61.10
42841;DHT22;28491;46.898;7.660;2022-11-20T16:10:03;5.50;60.50
42841;DHT22;28491;46.898;7.660;2022-11-20T16:12:29;5.50;60.30
42841;DHT22;28491;46.898;7.660;2022-11-20T16:15:13;5.50;60.20
42841;DHT22;28491;46.898;7.660;2022-11-20T16:17:57;5.60;57.30
42841;DHT22;28491;46.898;7.660;2022-11-20T16:20:22;5.50;57.60
42841;DHT22;28491;46.898;7.660;2022-11-20T16:22:48;5.40;60.20
42841;DHT22;28491;46.898;7.660;2022-11-20T16:25:14;5.40;60.90
42841;DHT22;28491;46.898;7.660;2022-11-20T16:27:39;5.30;61.40
42841;DHT22;28491;46.898;7.660;2022-11-20T16:30:05;5.10;61.90
42841;DHT22;28491;46.898;7.660;2022-11-20T16:32:31;5.20;62.40
42841;DHT22;28491;46.898;7.660;2022-11-20T16:34:56;5.30;62.00
42841;DHT22;28491;46.898;7.660;2022-11-20T16:37:22;5.40;60.80
42841;DHT22;28491;46.898;7.660;2022-11-20T16:39:47;5.50;61.30
42841;DHT22;28491;46.898;7.660;2022-11-20T16:42:13;5.50;61.40
42841;DHT22;28491;46.898;7.660;2022-11-20T16:44:38;5.50;61.70
42841;DHT22;28491;46.898;7.660;2022-11-20T16:47:04;5.40;62.20
42841;DHT22;28491;46.898;7.660;2022-11-20T16:49:30;5.30;62.30
42841;DHT22;28491;46.898;7.660;2022-11-20T16:51:57;5.40;62.00
42841;DHT22;28491;46.898;7.660;2022-11-20T16:54:23;5.40;61.70
42841;DHT22;28491;46.898;7.660;2022-11-20T16:56:48;5.40;62.00
42841;DHT22;28491;46.898;7.660;2022-11-20T16:59:16;5.40;61.90
42841;DHT22;28491;46.898;7.660;2022-11-20T17:01:41;5.40;62.40
42841;DHT22;28491;46.898;7.660;2022-11-20T17:04:08;5.40;62.40
42841;DHT22;28491;46.898;7.660;2022-11-20T17:06:35;5.40;62.90
42841;DHT22;28491;46.898;7.660;2022-11-20T17:09:01;5.40;62.40
42841;DHT22;28491;46.898;7.660;2022-11-20T17:11:27;5.40;62.50
42841;DHT22;28491;46.898;7.660;2022-11-20T17:13:57;5.40;62.10